Time;durP1;ratioP1;P1;durP2;ratioP2;P2;SDS_P1;SDS_P2;PMS_P1;PMS_P2;Temp;Humidity;BMP_temperature;BMP_pressure;BME280_temperature;BME280_humidity;BME280_pressure;Samples;Min_cycle;Max_cycle;Signal;HPM_P1;HPM_P2
2023/10/31 00:00:12;;;;;;;11.05;2.60;;;;;;;21.82;100.00;101592.72;143729;580;47004;-79
2023/10/31 00:02:39;;;;;;;7.53;3.05;;;;;;;21.84;100.00;101592.47;143724;572;46012;-78
2023/10/31 00:05:06;;;;;;;6.62;2.28;;;;;;;21.76;100.00;101594.56;143722;578;47006;-78
2023/10/31 00:07:32;;;;;;;9.82;2.28;;;;;;;21.76;100.00;101596.47;143725;585;46009;-77
2023/10/31 00:09:58;;;;;;;8.13;2.33;;;;;;;21.80;100.00;101592.16;143723;587;47006;-78
2023/10/31 00:12:25;;;;;;;7.75;2.33;;;;;;;21.80;100.00;101587.50;143720;600;47012;-79
2023/10/31 00:14:52;;;;;;;8.05;2.75;;;;;;;21.86;100.00;101579.37;143722;593;47007;-78
2023/10/31 00:17:18;;;;;;;8.40;2.40;;;;;;;21.86;100.00;101574.75;143726;594;46008;-77
2023/10/31 00:19:44;;;;;;;8.93;2.40;;;;;;;21.81;100.00;101575.47;143726;574;47002;-78
2023/10/31 00:22:11;;;;;;;6.55;2.33;;;;;;;21.80;100.00;101584.75;143723;582;47012;-78
2023/10/31 00:24:37;;;;;;;10.20;2.50;;;;;;;21.69;100.00;101582.97;143722;574;47006;-79
2023/10/31 00:27:04;;;;;;;7.40;2.67;;;;;;;21.60;100.00;101579.84;143727;576;46008;-76
2023/10/31 00:29:30;;;;;;;10.48;2.58;;;;;;;21.63;100.00;101578.50;143724;621;47004;-78
2023/10/31 00:31:57;;;;;;;8.77;2.62;;;;;;;21.62;100.00;101577.69;143723;578;47006;-79
2023/10/31 00:34:23;;;;;;;9.07;2.50;;;;;;;21.61;100.00;101581.50;143722;585;47004;-78
2023/10/31 00:36:50;;;;;;;11.38;2.62;;;;;;;21.61;100.00;101570.56;143726;653;46007;-78
2023/10/31 00:39:16;;;;;;;8.88;3.00;;;;;;;21.53;100.00;101573.72;143724;736;47002;-78
2023/10/31 00:41:46;;;;;;;7.30;3.00;;;;;;;21.43;100.00;101570.81;143726;588;46004;-78
2023/10/31 00:44:13;;;;;;;5.05;2.37;;;;;;;21.32;100.00;101575.31;143722;580;47004;-78
2023/10/31 00:46:39;;;;;;;8.68;2.87;;;;;;;21.34;100.00;101574.00;143726;567;47006;-79
2023/10/31 00:49:06;;;;;;;8.65;2.20;;;;;;;21.34;100.00;101565.81;143724;658;47002;-78
2023/10/31 00:51:32;;;;;;;11.38;2.85;;;;;;;21.40;100.00;101565.84;143722;594;48009;-79
2023/10/31 00:53:59;;;;;;;6.60;2.85;;;;;;;21.39;100.00;101565.03;143725;584;46013;-79
2023/10/31 00:56:25;;;;;;;8.23;2.67;;;;;;;21.27;100.00;101569.78;143722;673;47000;-79
2023/10/31 00:58:51;;;;;;;11.12;3.08;;;;;;;21.30;100.00;101563.81;143724;742;47003;-79
2023/10/31 01:01:18;;;;;;;8.85;3.10;;;;;;;21.37;100.00;101567.19;143725;587;46011;-78
2023/10/31 01:03:44;;;;;;;5.60;2.70;;;;;;;21.30;100.00;101561.06;143722;674;47004;-77
2023/10/31 01:06:11;;;;;;;5.90;2.45;;;;;;;21.32;100.00;101556.19;143724;654;47007;-78
2023/10/31 01:08:37;;;;;;;6.72;2.42;;;;;;;21.26;100.00;101560.75;143726;589;47002;-78
2023/10/31 01:11:03;;;;;;;12.02;3.05;;;;;;;21.31;100.00;101558.09;143725;572;46010;-79
2023/10/31 01:13:30;;;;;;;7.00;2.65;;;;;;;21.25;100.00;101553.62;143726;593;46008;-77
2023/10/31 01:15:56;;;;;;;7.05;2.87;;;;;;;21.23;100.00;101547.59;143727;593;46006;-78
2023/10/31 01:18:23;;;;;;;8.65;3.12;;;;;;;21.25;100.00;101544.63;143724;573;47004;-79
2023/10/31 01:20:49;;;;;;;7.65;2.58;;;;;;;21.26;100.00;101543.53;143726;579;46004;-78
2023/10/31 01:23:15;;;;;;;7.32;2.37;;;;;;;21.21;100.00;101547.00;143723;597;47004;-79
2023/10/31 01:25:41;;;;;;;11.27;2.70;;;;;;;21.23;100.00;101547.59;143724;582;46006;-78
2023/10/31 01:28:09;;;;;;;9.95;2.78;;;;;;;21.22;100.00;101542.37;143723;590;47002;-78
2023/10/31 01:30:35;;;;;;;3.65;2.45;;;;;;;21.19;100.00;101544.53;143724;588;47924;-78
2023/10/31 01:33:02;;;;;;;7.53;3.53;;;;;;;21.18;100.00;101547.53;143722;713;47004;-77
2023/10/31 01:35:28;;;;;;;6.22;2.90;;;;;;;21.22;100.00;101545.13;143726;613;46006;-78
2023/10/31 01:37:54;;;;;;;9.15;3.53;;;;;;;21.23;100.00;101549.50;143724;593;47004;-78
2023/10/31 01:40:21;;;;;;;8.27;3.17;;;;;;;21.23;100.00;101541.31;143725;569;46008;-77
2023/10/31 01:42:48;;;;;;;5.95;2.95;;;;;;;21.15;100.00;101548.03;143722;582;47004;-78
2023/10/31 01:45:14;;;;;;;10.57;2.90;;;;;;;21.11;100.00;101535.94;143726;586;46006;-78
2023/10/31 01:47:40;;;;;;;4.57;2.35;;;;;;;21.11;100.00;101544.12;143725;596;47004;-78
2023/10/31 01:50:09;;;;;;;6.57;2.53;;;;;;;21.08;100.00;101550.09;143722;578;47008;-77
2023/10/31 01:52:37;;;;;;;9.57;2.75;;;;;;;21.08;100.00;101542.72;143721;667;47004;-79
2023/10/31 01:55:05;;;;;;;8.65;2.60;;;;;;;21.13;100.00;101533.78;143725;591;46006;-77
2023/10/31 01:57:32;;;;;;;7.45;2.75;;;;;;;21.09;100.00;101538.09;143723;585;47003;-79
2023/10/31 01:59:59;;;;;;;6.70;2.65;;;;;;;21.08;100.00;101545.47;143727;747;46011;-78
2023/10/31 04:01:10;;;;;;;14.38;3.47;;;;;;;20.54;100.00;101546.72;143736;583;46002;-78
2023/10/31 04:03:36;;;;;;;11.93;3.37;;;;;;;20.60;100.00;101545.72;143733;580;47004;-78
2023/10/31 04:06:03;;;;;;;14.77;3.22;;;;;;;20.56;100.00;101544.56;143731;690;47013;-78
2023/10/31 04:08:29;;;;;;;11.80;3.20;;;;;;;20.54;100.00;101537.69;143733;598;47004;-79
2023/10/31 04:10:56;;;;;;;10.65;3.17;;;;;;;20.51;100.00;101546.38;143733;599;46008;-79
2023/10/31 04:13:22;;;;;;;13.45;3.85;;;;;;;20.45;100.00;101545.44;143736;587;47002;-79
2023/10/31 04:15:49;;;;;;;13.13;3.50;;;;;;;20.40;100.00;101551.66;143731;825;46012;-79
2023/10/31 04:18:15;;;;;;;10.95;3.40;;;;;;;20.34;100.00;101546.34;143731;797;47006;-79
2023/10/31 04:20:41;;;;;;;12.07;3.45;;;;;;;20.33;100.00;101555.59;143735;779;46025;-77
2023/10/31 04:23:08;;;;;;;14.02;3.15;;;;;;;20.33;100.00;101550.12;143733;593;47004;-78
2023/10/31 04:25:34;;;;;;;11.23;2.95;;;;;;;20.36;100.00;101550.47;143733;768;47926;-77
2023/10/31 04:28:00;;;;;;;19.80;4.35;;;;;;;20.39;100.00;101540.97;143733;567;47006;-77
2023/10/31 04:30:28;;;;;;;12.93;3.70;;;;;;;20.32;100.00;101543.03;143732;581;46008;-77
2023/10/31 04:32:54;;;;;;;20.62;4.22;;;;;;;20.29;100.00;101545.16;143733;986;47004;-78
2023/10/31 04:35:21;;;;;;;19.02;4.07;;;;;;;20.32;100.00;101549.28;143732;574;46012;-78
2023/10/31 04:37:47;;;;;;;20.60;3.65;;;;;;;20.27;100.00;101547.31;143730;593;47006;-79
2023/10/31 04:40:14;;;;;;;16.35;3.75;;;;;;;20.22;100.00;101549.94;143731;593;47008;-77
2023/10/31 04:42:40;;;;;;;13.70;3.95;;;;;;;20.19;100.00;101553.16;143731;864;47004;-78
2023/10/31 04:45:08;;;;;;;12.07;4.05;;;;;;;20.11;100.00;101551.66;143730;656;47012;-78
2023/10/31 04:47:34;;;;;;;7.53;4.07;;;;;;;20.08;100.00;101564.91;143732;568;47006;-78
2023/10/31 04:50:01;;;;;;;10.98;3.70;;;;;;;20.15;100.00;101571.88;143733;597;46009;-78
2023/10/31 04:52:27;;;;;;;11.68;3.75;;;;;;;20.22;100.00;101576.37;143735;972;47002;-76
2023/10/31 04:54:53;;;;;;;14.27;3.62;;;;;;;20.24;100.00;101580.53;143735;979;46012;-79
2023/10/31 04:57:20;;;;;;;9.98;3.72;;;;;;;20.30;100.00;101585.03;143731;669;47004;-78
2023/10/31 04:59:46;;;;;;;10.00;3.33;;;;;;;20.28;100.00;101580.88;143733;602;46008;-78
2023/10/31 05:02:12;;;;;;;14.60;3.25;;;;;;;20.28;100.00;101580.88;143730;572;47006;-78
2023/10/31 05:04:40;;;;;;;14.38;3.40;;;;;;;20.24;100.00;101593.34;143725;567;47011;-77
2023/10/31 05:07:06;;;;;;;12.73;3.65;;;;;;;20.28;100.00;101587.16;143724;597;47006;-78
2023/10/31 05:09:33;;;;;;;18.98;4.00;;;;;;;20.37;100.00;101584.88;143725;980;46008;-79
2023/10/31 05:12:00;;;;;;;12.25;3.87;;;;;;;20.36;100.00;101579.66;143726;592;47004;-76
2023/10/31 05:14:26;;;;;;;17.27;3.83;;;;;;;20.36;100.00;101580.47;143729;608;46013;-79
2023/10/31 05:16:53;;;;;;;20.00;3.50;;;;;;;20.40;100.00;101567.16;143723;973;47006;-79
2023/10/31 05:19:19;;;;;;;13.35;3.12;;;;;;;20.48;100.00;101574.12;143728;731;46008;-79
2023/10/31 05:21:45;;;;;;;17.55;3.80;;;;;;;20.56;100.00;101576.47;143729;574;46008;-79
2023/10/31 05:24:12;;;;;;;6.93;3.40;;;;;;;20.55;100.00;101583.84;143724;574;47012;-79
2023/10/31 05:26:41;;;;;;;14.68;3.45;;;;;;;20.57;100.00;101576.22;143726;574;46009;-78
2023/10/31 05:29:08;;;;;;;14.87;3.80;;;;;;;20.60;100.00;101573.00;143725;572;47006;-79
2023/10/31 05:31:35;;;;;;;6.22;2.87;;;;;;;20.69;100.00;101583.53;143730;599;46004;-78
2023/10/31 05:34:03;;;;;;;11.52;3.35;;;;;;;20.77;100.00;101572.25;143729;779;46012;-79
2023/10/31 05:36:30;;;;;;;19.90;4.25;;;;;;;20.84;100.00;101575.66;143727;761;46006;-79
2023/10/31 05:38:56;;;;;;;12.48;3.80;;;;;;;20.89;100.00;101580.38;143727;801;46010;-77
2023/10/31 05:41:23;;;;;;;10.82;3.97;;;;;;;20.94;100.00;101583.19;143730;573;46006;-77
2023/10/31 05:43:49;;;;;;;21.17;4.95;;;;;;;20.88;100.00;101589.63;143729;579;46008;-77
2023/10/31 05:46:16;;;;;;;18.50;5.30;;;;;;;20.95;100.00;101593.03;143724;908;47008;-78
2023/10/31 05:48:47;;;;;;;28.00;4.95;;;;;;;20.89;100.00;101600.31;143726;712;46008;-78
2023/10/31 05:51:17;;;;;;;21.58;5.45;;;;;;;20.94;100.00;101596.84;143728;601;46010;-79
2023/10/31 05:53:47;;;;;;;19.37;4.50;;;;;;;21.08;100.00;101596.50;143722;818;47010;-78
2023/10/31 05:56:15;;;;;;;14.35;4.62;;;;;;;21.22;100.00;101589.63;143730;592;46007;-78
2023/10/31 05:58:42;;;;;;;21.10;5.32;;;;;;;21.28;100.00;101580.47;143726;569;46008;-79
2023/10/31 06:01:09;;;;;;;18.70;5.28;;;;;;;21.36;100.00;101579.22;143728;578;46008;-77
2023/10/31 06:03:35;;;;;;;14.13;4.25;;;;;;;21.48;100.00;101590.03;143723;577;47006;-77
2023/10/31 06:06:02;;;;;;;26.40;5.37;;;;;;;21.53;100.00;101587.41;143727;959;47004;-79
2023/10/31 06:08:28;;;;;;;25.30;4.80;;;;;;;21.52;100.00;101593.94;143722;572;47006;-78
2023/10/31 06:10:56;;;;;;;14.40;4.45;;;;;;;21.57;100.00;101596.72;143729;600;46011;-78
2023/10/31 06:13:26;;;;;;;11.50;5.20;;;;;;;21.69;100.00;101604.84;143720;743;46013;-78
2023/10/31 06:15:57;;;;;;;17.27;5.18;;;;;;;21.74;100.00;101607.66;143728;572;46006;-78
2023/10/31 06:18:24;;;;;;;19.67;4.50;;;;;;;21.74;100.00;101610.41;143724;577;47008;-77
2023/10/31 06:20:50;;;;;;;25.15;5.10;;;;;;;21.73;100.00;101600.53;143726;590;46006;-78
2023/10/31 06:23:17;;;;;;;23.00;5.07;;;;;;;21.77;100.00;101603.59;143727;582;46010;-78
2023/10/31 06:25:43;;;;;;;28.33;5.40;;;;;;;21.80;100.00;101594.88;143724;598;46013;-79
2023/10/31 06:28:10;;;;;;;25.50;4.53;;;;;;;21.87;100.00;101603.75;143724;572;46008;-79
2023/10/31 06:30:37;;;;;;;24.33;5.43;;;;;;;21.98;100.00;101593.75;143726;572;46006;-79
2023/10/31 06:33:03;;;;;;;23.30;5.22;;;;;;;22.04;100.00;101598.19;143723;715;47009;-80
2023/10/31 06:35:29;;;;;;;18.87;5.28;;;;;;;22.13;100.00;101593.09;143728;574;46006;-79
2023/10/31 06:37:56;;;;;;;18.48;5.35;;;;;;;22.20;100.00;101601.12;143723;580;46008;-79
2023/10/31 06:40:24;;;;;;;18.23;5.62;;;;;;;22.31;100.00;101604.81;143729;608;46006;-78
2023/10/31 06:42:51;;;;;;;18.30;5.32;;;;;;;22.35;100.00;101608.69;143725;572;47010;-79
2023/10/31 06:45:17;;;;;;;19.35;4.45;;;;;;;22.43;100.00;101612.91;143730;603;46010;-79
2023/10/31 06:47:44;;;;;;;15.23;5.65;;;;;;;22.47;100.00;101616.78;143725;570;47004;-78
2023/10/31 06:50:10;;;;;;;13.25;3.97;;;;;;;22.48;100.00;101621.19;143729;573;46007;-79
2023/10/31 06:52:36;;;;;;;12.77;3.58;;;;;;;22.56;100.00;101618.81;143725;587;46012;-79
2023/10/31 06:55:03;;;;;;;13.07;3.90;;;;;;;22.65;100.00;101621.06;143727;611;46009;-79
2023/10/31 06:57:30;;;;;;;12.75;3.50;;;;;;;22.82;100.00;101618.25;143724;617;47008;-79
2023/10/31 06:59:56;;;;;;;14.07;3.72;;;;;;;22.92;100.00;101621.06;143728;590;46008;-80
2023/10/31 07:02:23;;;;;;;14.93;5.37;;;;;;;23.07;100.00;101619.53;143723;572;46926;-79
2023/10/31 07:04:49;;;;;;;22.55;5.47;;;;;;;23.21;100.00;101622.72;143725;672;46010;-79
2023/10/31 07:07:16;;;;;;;28.50;5.18;;;;;;;23.27;100.00;101619.75;143726;595;47006;-79
2023/10/31 07:09:42;;;;;;;15.65;4.85;;;;;;;23.39;100.00;101619.56;143731;575;46002;-79
2023/10/31 07:12:09;;;;;;;17.80;4.10;;;;;;;23.52;100.00;101617.44;143728;651;46026;-79
2023/10/31 07:14:36;;;;;;;22.62;4.90;;;;;;;23.67;100.00;101616.72;143723;591;46010;-79
2023/10/31 07:17:02;;;;;;;15.57;3.83;;;;;;;23.81;100.00;101608.84;143725;589;46018;-80
2023/10/31 07:19:29;;;;;;;13.70;3.85;;;;;;;23.90;100.00;101610.81;143731;591;46006;-80
2023/10/31 07:21:55;;;;;;;15.88;4.18;;;;;;;23.91;100.00;101615.22;143724;659;48006;-79
2023/10/31 07:24:22;;;;;;;14.73;5.22;;;;;;;23.99;100.00;101613.91;143725;593;46027;-79
2023/10/31 07:26:48;;;;;;;14.02;4.82;;;;;;;24.13;100.00;101616.16;143729;608;46011;-79
2023/10/31 07:29:14;;;;;;;13.23;4.65;;;;;;;24.15;100.00;101609.28;143727;660;47002;-80
2023/10/31 07:31:41;;;;;;;14.13;4.97;;;;;;;24.30;100.00;101611.28;143726;639;46008;-78
2023/10/31 07:34:08;;;;;;;19.45;5.12;;;;;;;24.45;100.00;101602.22;143725;579;46011;-78
2023/10/31 07:36:34;;;;;;;19.70;4.80;;;;;;;24.57;100.00;101593.75;143728;596;46008;-79
2023/10/31 07:39:02;;;;;;;19.23;5.10;;;;;;;24.66;100.00;101589.37;143728;590;47021;-80
2023/10/31 07:41:29;;;;;;;14.40;5.37;;;;;;;24.70;100.00;101583.34;143728;615;46024;-79
2023/10/31 07:43:55;;;;;;;12.00;5.40;;;;;;;24.80;100.00;101572.37;143729;586;46010;-79
2023/10/31 07:46:23;;;;;;;14.82;3.92;;;;;;;24.95;100.00;101561.38;143725;594;46008;-79
2023/10/31 07:48:49;;;;;;;14.38;4.50;;;;;;;25.03;100.00;101568.25;143729;609;46008;-76
2023/10/31 07:51:16;;;;;;;13.65;4.03;;;;;;;25.18;100.00;101570.19;143727;614;46925;-73
2023/10/31 07:53:42;;;;;;;16.05;3.80;;;;;;;25.29;100.00;101570.97;143725;619;47006;-78
2023/10/31 07:56:22;;;;;;;20.92;4.30;;;;;;;25.25;100.00;101567.94;143725;608;47002;-80
2023/10/31 07:58:52;;;;;;;19.10;5.37;;;;;;;25.26;100.00;101555.03;143724;584;47004;-79
2023/10/31 08:01:19;;;;;;;14.35;4.95;;;;;;;25.35;100.00;101558.03;143724;595;47012;-79
2023/10/31 08:03:48;;;;;;;21.58;5.10;;;;;;;25.42;100.00;101553.94;143755;585;45012;-78
2023/10/31 08:06:14;;;;;;;16.75;4.70;;;;;;;25.53;100.00;101540.97;143756;667;45008;-79
2023/10/31 08:08:40;;;;;;;14.32;5.50;;;;;;;25.60;100.00;101535.19;143754;611;46006;-80
2023/10/31 08:11:10;;;;;;;15.85;5.50;;;;;;;25.64;100.00;101539.03;143730;569;47012;-79
2023/10/31 08:13:39;;;;;;;20.65;6.90;;;;;;;25.79;100.00;101534.56;143731;620;47004;-78
2023/10/31 08:16:07;;;;;;;16.48;7.22;;;;;;;25.89;100.00;101540.00;143734;619;46008;-79
2023/10/31 08:18:34;;;;;;;16.12;7.62;;;;;;;26.03;100.00;101540.22;143737;574;47006;-78
2023/10/31 08:21:00;;;;;;;31.73;8.95;;;;;;;26.09;100.00;101549.25;143730;569;47010;-80
2023/10/31 08:23:28;;;;;;;20.10;7.55;;;;;;;26.20;100.00;101547.31;143730;595;47006;-79
2023/10/31 08:25:55;;;;;;;19.83;7.50;;;;;;;26.20;100.00;101552.81;143752;575;47924;-79
2023/10/31 08:28:21;;;;;;;15.80;6.12;;;;;;;26.32;100.00;101553.28;143753;594;46004;-80
2023/10/31 08:30:47;;;;;;;16.23;5.80;;;;;;;26.40;100.00;101562.87;143753;605;46925;-79
2023/10/31 08:33:14;;;;;;;20.33;6.45;;;;;;;26.64;100.00;101561.03;143754;584;46006;-79
2023/10/31 08:35:41;;;;;;;15.18;5.35;;;;;;;26.66;100.00;101565.44;143756;591;45923;-79
2023/10/31 08:38:07;;;;;;;12.45;4.50;;;;;;;26.81;100.00;101557.09;143753;591;46006;-79
2023/10/31 08:40:34;;;;;;;16.23;4.60;;;;;;;27.06;100.00;101546.94;143751;569;45011;-78
2023/10/31 08:43:01;;;;;;;15.23;5.72;;;;;;;27.29;100.00;101547.25;143752;568;46006;-79
2023/10/31 08:45:27;;;;;;;14.60;5.30;;;;;;;28.77;100.00;101517.12;143733;570;46008;-78
2023/10/31 08:47:53;;;;;;;13.85;5.53;;;;;;;33.80;79.51;101484.25;143753;567;46006;-78
2023/10/31 08:50:20;;;;;;;32.15;8.80;;;;;;;37.74;59.43;101475.66;143751;601;46010;-78
2023/10/31 08:52:46;;;;;;;400.87;37.63;;;;;;;40.35;48.93;101474.16;143751;609;46006;-75
2023/10/31 08:55:12;;;;;;;21.23;5.35;;;;;;;42.30;41.70;101453.97;143753;569;45924;-73
2023/10/31 08:57:39;;;;;;;17.30;6.07;;;;;;;43.86;38.31;101446.06;143753;726;46004;-76
2023/10/31 09:00:06;;;;;;;14.30;5.12;;;;;;;44.91;36.25;101428.28;143756;662;46010;-76
2023/10/31 09:02:33;;;;;;;13.88;4.57;;;;;;;45.97;33.22;101418.03;143735;614;47014;-77
2023/10/31 09:05:00;;;;;;;19.00;6.22;;;;;;;46.84;31.53;101410.91;143727;569;46008;-77
2023/10/31 09:07:26;;;;;;;11.48;4.70;;;;;;;47.38;28.99;101394.81;143723;647;47006;-75
2023/10/31 09:09:53;;;;;;;17.30;4.55;;;;;;;47.66;28.01;101389.75;143723;566;47012;-76
2023/10/31 09:12:20;;;;;;;17.90;4.32;;;;;;;48.06;27.88;101380.25;143723;578;47004;-75
2023/10/31 09:14:46;;;;;;;11.43;2.85;;;;;;;48.47;26.83;101369.44;143725;569;46008;-77
2023/10/31 09:17:12;;;;;;;13.88;4.87;;;;;;;48.09;26.20;101368.78;143729;672;47002;-77
2023/10/31 09:19:39;;;;;;;15.30;3.78;;;;;;;48.19;27.00;101366.88;143722;597;47013;-77
2023/10/31 09:22:05;;;;;;;19.17;3.72;;;;;;;48.45;25.73;101360.53;143722;585;47006;-76
2023/10/31 09:24:33;;;;;;;11.73;3.47;;;;;;;48.61;25.72;101354.00;143728;613;45924;-74
2023/10/31 09:27:01;;;;;;;11.43;3.20;;;;;;;47.34;26.20;101414.81;143731;575;46002;-72
2023/10/31 09:29:30;;;;;;;16.08;3.85;;;;;;;43.07;30.40;101418.88;143730;746;45012;-73
2023/10/31 09:31:56;;;;;;;14.15;3.45;;;;;;;40.41;33.07;101416.34;143727;613;47006;-77
2023/10/31 09:34:23;;;;;;;13.00;4.28;;;;;;;38.62;35.94;101408.78;143724;580;46008;-76
2023/10/31 09:36:49;;;;;;;13.70;3.65;;;;;;;37.74;37.36;101401.97;143723;567;47002;-77
2023/10/31 09:39:16;;;;;;;11.63;3.92;;;;;;;39.98;35.67;101348.41;143724;620;46012;-76
2023/10/31 09:41:42;;;;;;;11.63;3.10;;;;;;;42.38;33.38;101357.62;143723;585;47004;-77
2023/10/31 09:44:08;;;;;;;7.75;3.78;;;;;;;43.47;31.32;101358.16;143726;579;46008;-77
2023/10/31 09:46:36;;;;;;;11.63;3.37;;;;;;;43.54;31.40;101362.16;143724;575;47006;-77
2023/10/31 09:49:03;;;;;;;12.20;3.80;;;;;;;43.31;31.21;101374.81;143722;598;47926;-76
2023/10/31 09:51:30;;;;;;;9.80;3.42;;;;;;;43.17;31.82;101389.78;143724;592;47006;-77
2023/10/31 09:53:59;;;;;;;9.88;3.65;;;;;;;42.62;32.22;101386.25;143726;763;46004;-77
2023/10/31 09:56:26;;;;;;;11.20;3.20;;;;;;;41.93;33.98;101386.19;143726;746;47008;-78
2023/10/31 09:58:53;;;;;;;9.77;3.62;;;;;;;41.36;35.15;101386.81;143727;596;46012;-77
2023/10/31 10:01:19;;;;;;;11.63;3.75;;;;;;;40.57;35.37;101371.03;143725;572;47004;-77
2023/10/31 10:03:46;;;;;;;19.23;4.05;;;;;;;39.91;37.28;101368.81;143724;590;46011;-77
2023/10/31 10:06:13;;;;;;;13.75;3.97;;;;;;;39.38;36.77;101375.44;143722;582;47004;-76
2023/10/31 10:08:39;;;;;;;11.30;3.97;;;;;;;39.05;38.57;101377.78;143728;615;46006;-76
2023/10/31 10:11:06;;;;;;;10.68;3.78;;;;;;;37.74;40.01;101368.31;143728;620;46004;-77
2023/10/31 10:13:33;;;;;;;9.13;3.20;;;;;;;37.21;40.36;101364.03;143723;634;46008;-76
2023/10/31 10:16:00;;;;;;;9.27;2.70;;;;;;;36.92;40.87;101357.75;143723;606;47004;-76
2023/10/31 10:18:28;;;;;;;7.12;3.10;;;;;;;36.72;41.77;101368.09;143722;581;47012;-77
2023/10/31 10:20:56;;;;;;;8.18;3.60;;;;;;;36.39;41.84;101358.87;143722;612;47006;-76
2023/10/31 10:23:24;;;;;;;9.88;3.28;;;;;;;35.65;43.15;101356.50;143725;592;46008;-76
2023/10/31 10:25:50;;;;;;;10.73;3.35;;;;;;;34.88;45.40;101364.53;143723;590;47004;-77
2023/10/31 10:28:19;;;;;;;11.10;2.95;;;;;;;34.34;46.26;101354.38;143723;631;46012;-77
2023/10/31 10:30:49;;;;;;;14.98;4.32;;;;;;;33.92;48.45;101346.19;143723;591;47006;-76
2023/10/31 10:33:16;;;;;;;10.10;3.25;;;;;;;33.13;49.95;101347.59;143720;581;47009;-75
2023/10/31 10:35:44;;;;;;;9.30;3.47;;;;;;;32.86;51.27;101335.84;143725;594;47006;-75
2023/10/31 10:38:18;;;;;;;12.88;3.45;;;;;;;32.61;52.98;101343.16;143725;572;46012;-75
2023/10/31 10:40:48;;;;;;;11.82;3.25;;;;;;;32.24;54.31;101340.00;143719;580;47006;-76
2023/10/31 10:43:22;;;;;;;12.13;3.67;;;;;;;31.94;56.14;101340.72;143726;592;46008;-76
2023/10/31 10:45:57;;;;;;;12.00;3.22;;;;;;;31.59;56.76;101341.53;143720;591;50008;-75
2023/10/31 10:48:25;;;;;;;10.00;3.20;;;;;;;31.35;57.68;101339.25;143726;647;46032;-75
2023/10/31 10:50:59;;;;;;;6.45;2.78;;;;;;;31.05;57.70;101341.00;143722;573;47004;-75
2023/10/31 10:53:31;;;;;;;9.13;3.67;;;;;;;30.92;59.18;101334.44;143725;603;46008;-74
2023/10/31 10:56:03;;;;;;;10.07;3.20;;;;;;;30.66;60.62;101337.94;143725;681;47007;-75
2023/10/31 10:59:00;;;;;;;15.13;3.83;;;;;;;30.54;61.34;101333.81;143728;575;46010;-75
2023/10/31 11:01:28;;;;;;;9.20;3.03;;;;;;;30.29;63.05;101346.41;143724;589;47004;-74
2023/10/31 11:03:58;;;;;;;10.38;3.33;;;;;;;30.24;65.16;101344.59;143725;640;46006;-75
2023/10/31 11:06:26;;;;;;;10.98;3.58;;;;;;;30.06;65.98;101338.13;143730;583;45580;-75
2023/10/31 11:08:53;;;;;;;11.48;3.22;;;;;;;30.00;67.19;101339.41;143724;619;46010;-74
2023/10/31 11:11:21;;;;;;;10.13;3.40;;;;;;;29.93;67.02;101327.94;143723;606;47002;-75
2023/10/31 11:13:48;;;;;;;8.20;3.05;;;;;;;29.80;67.30;101333.22;143723;594;46006;-74
2023/10/31 11:16:24;;;;;;;10.15;3.67;;;;;;;29.70;70.67;101330.69;143726;573;46011;-74
2023/10/31 11:18:51;;;;;;;15.57;4.20;;;;;;;29.80;70.57;101322.16;143725;604;46011;-75
2023/10/31 11:21:18;;;;;;;9.75;3.50;;;;;;;29.98;71.40;101319.53;143718;604;47004;-75
2023/10/31 11:23:44;;;;;;;11.00;4.43;;;;;;;30.32;74.81;101318.06;143727;624;46006;-74
2023/10/31 11:26:10;;;;;;;9.70;3.37;;;;;;;30.52;72.26;101302.03;143724;602;47002;-74
2023/10/31 11:28:37;;;;;;;18.23;6.70;;;;;;;30.66;70.44;101296.38;143722;579;47010;-71
2023/10/31 11:31:04;;;;;;;6.32;2.65;;;;;;;30.77;65.85;101299.66;143720;594;47006;-71
2023/10/31 11:33:30;;;;;;;7.55;3.15;;;;;;;30.74;64.14;101291.97;143723;629;48008;-70
2023/10/31 11:36:04;;;;;;;8.13;3.05;;;;;;;30.72;64.57;101280.38;143723;598;47004;-71
2023/10/31 11:38:33;;;;;;;7.40;3.15;;;;;;;30.53;65.16;101265.66;143723;646;46012;-71
2023/10/31 11:41:01;;;;;;;19.35;3.65;;;;;;;30.55;69.48;101266.19;143721;699;47006;-71
2023/10/31 11:43:52;;;;;;;11.40;3.72;;;;;;;30.39;70.24;101264.97;143725;572;46008;-71
2023/10/31 11:46:20;;;;;;;18.37;4.18;;;;;;;30.43;71.54;101262.34;143722;573;47004;-70
2023/10/31 11:48:51;;;;;;;11.00;3.12;;;;;;;30.39;68.47;101256.66;143723;602;47013;-68
2023/10/31 11:51:18;;;;;;;11.63;3.37;;;;;;;30.25;67.64;101260.34;143726;582;46010;-67
2023/10/31 11:53:45;;;;;;;13.85;3.90;;;;;;;30.05;69.48;101258.13;143723;651;49009;-68
2023/10/31 11:56:11;;;;;;;12.37;3.25;;;;;;;30.08;70.11;101251.97;143725;608;47004;-69
2023/10/31 11:58:38;;;;;;;11.43;3.22;;;;;;;30.16;68.90;101239.28;143724;574;47012;-69
2023/10/31 12:01:06;;;;;;;12.23;3.30;;;;;;;29.89;71.15;101238.31;143727;584;46011;-69
2023/10/31 12:03:47;;;;;;;10.00;3.58;;;;;;;29.76;72.48;101220.63;143724;597;47008;-69
2023/10/31 12:06:14;;;;;;;12.80;3.58;;;;;;;29.79;73.50;101209.78;143724;596;47004;-68
2023/10/31 12:08:42;;;;;;;8.23;3.15;;;;;;;29.64;73.89;101213.75;143723;647;47012;-69
2023/10/31 12:11:26;;;;;;;7.57;3.47;;;;;;;29.42;77.28;101222.91;143722;683;47006;-67
2023/10/31 12:13:56;;;;;;;;;;;;;;;29.19;79.67;101225.62;143730;983;46008;-66
2023/10/31 12:16:27;;;;;;;12.20;3.90;;;;;;;29.17;79.60;101227.06;143729;596;47002;-64
2023/10/31 12:19:01;;;;;;;8.57;3.12;;;;;;;29.08;79.39;101235.31;143723;567;47013;-67
2023/10/31 12:21:42;;;;;;;13.10;3.72;;;;;;;28.98;79.87;101239.12;143721;568;47006;-66
2023/10/31 12:24:11;;;;;;;7.22;3.20;;;;;;;28.91;81.28;101244.25;143725;635;47009;-67
2023/10/31 12:26:38;;;;;;;13.35;3.50;;;;;;;28.94;82.59;101240.87;143724;604;47004;-67
2023/10/31 12:29:18;;;;;;;13.35;3.45;;;;;;;28.97;82.15;101251.31;143722;579;47006;-67
2023/10/31 12:31:47;;;;;;;8.63;2.60;;;;;;;28.94;81.27;101253.87;143722;570;47006;-66
2023/10/31 12:34:17;;;;;;;8.85;2.70;;;;;;;28.87;81.81;101246.81;143726;611;46008;-68
2023/10/31 12:36:45;;;;;;;8.30;2.70;;;;;;;28.81;81.98;101248.06;143722;582;47004;-67
2023/10/31 12:39:12;;;;;;;11.20;3.00;;;;;;;28.64;82.53;101248.69;143726;578;46012;-68
2023/10/31 12:41:40;;;;;;;13.73;3.08;;;;;;;28.67;82.64;101244.47;143724;602;47006;-67
2023/10/31 12:44:10;;;;;;;10.63;3.30;;;;;;;28.61;83.93;101238.25;143725;588;46926;-66
2023/10/31 12:46:40;;;;;;;12.05;2.72;;;;;;;28.49;83.22;101224.13;143724;579;47006;-67
2023/10/31 12:49:23;;;;;;;10.52;3.10;;;;;;;28.38;83.90;101218.00;143723;594;47010;-67
2023/10/31 12:52:03;;;;;;;10.68;3.03;;;;;;;28.18;84.02;101222.81;143720;602;49004;-67
2023/10/31 12:54:37;;;;;;;7.72;2.80;;;;;;;28.04;84.18;101213.66;143725;582;46009;-66
2023/10/31 12:57:04;;;;;;;;;;;;;;;28.18;85.11;101209.00;143731;986;47004;-65
2023/10/31 12:59:31;;;;;;;14.05;3.33;;;;;;;28.22;85.38;101198.16;143731;574;46933;-67
2023/10/31 13:01:58;;;;;;;9.55;3.12;;;;;;;28.28;82.69;101199.69;143722;607;47006;-69
2023/10/31 13:04:29;;;;;;;6.82;2.92;;;;;;;28.31;82.82;101204.59;143726;614;46925;-70
2023/10/31 13:06:56;;;;;;;10.65;3.15;;;;;;;28.24;84.47;101201.41;143724;601;47004;-70
2023/10/31 13:09:23;;;;;;;9.68;3.10;;;;;;;28.14;83.76;101194.16;143723;614;46012;-71
2023/10/31 13:11:50;;;;;;;11.48;3.20;;;;;;;28.16;85.37;101197.44;143724;587;47004;-70
2023/10/31 13:14:17;;;;;;;9.45;3.10;;;;;;;28.24;87.14;101187.59;143726;594;46926;-70